createdAt,value
2023-02-24T00:00:50.256Z,87.60
2023-02-24T00:01:50.246Z,87.29
2023-02-24T00:02:50.299Z,87.29
2023-02-24T00:03:50.254Z,87.20
2023-02-24T00:04:50.205Z,87.23
2023-02-24T00:05:50.197Z,87.65
2023-02-24T00:06:50.183Z,87.95
2023-02-24T00:07:50.164Z,87.95
2023-02-24T00:08:50.151Z,88.16
2023-02-24T00:09:50.138Z,87.95
2023-02-24T00:10:50.125Z,88.06
2023-02-24T00:11:50.115Z,88.16
2023-02-24T00:12:50.129Z,87.85
2023-02-24T00:13:50.095Z,87.75
2023-02-24T00:14:50.074Z,88.16
2023-02-24T00:15:50.056Z,88.26
2023-02-24T00:16:50.167Z,88.26
2023-02-24T00:17:50.033Z,88.06
2023-02-24T00:18:50.021Z,88.01
2023-02-24T00:19:50.009Z,87.44
2023-02-24T00:20:49.998Z,87.95
2023-02-24T00:21:49.979Z,88.16
2023-02-24T00:22:49.971Z,88.51
2023-02-24T00:23:49.957Z,88.72
2023-02-24T00:24:49.945Z,88.82
2023-02-24T00:25:49.940Z,89.02
2023-02-24T00:26:49.916Z,89.12
2023-02-24T00:27:49.908Z,89.02
2023-02-24T00:28:49.918Z,88.92
2023-02-24T00:29:49.879Z,89.12
2023-02-24T00:30:49.923Z,89.23
2023-02-24T00:31:50.129Z,89.23
2023-02-24T00:32:49.988Z,89.53
2023-02-24T00:33:49.832Z,89.84
2023-02-24T00:34:49.826Z,89.74
2023-02-24T00:35:49.809Z,89.84
2023-02-24T00:36:49.822Z,90.05
2023-02-24T00:37:49.792Z,89.95
2023-02-24T00:38:49.780Z,89.95
2023-02-24T00:39:49.757Z,89.95
2023-02-24T00:40:49.749Z,90.05
2023-02-24T00:41:49.732Z,90.40
2023-02-24T00:42:49.721Z,90.30
2023-02-24T00:43:49.712Z,90.50
2023-02-24T00:44:49.730Z,90.71
2023-02-24T00:45:49.685Z,90.81
2023-02-24T00:46:49.671Z,90.77
2023-02-24T00:47:49.656Z,90.67
2023-02-24T00:48:49.645Z,90.46
2023-02-24T00:49:49.631Z,90.25
2023-02-24T00:50:49.621Z,90.46
2023-02-24T00:51:49.620Z,90.46
2023-02-24T00:52:49.597Z,90.67
2023-02-24T00:53:49.579Z,90.67
2023-02-24T00:54:49.567Z,90.81
2023-02-24T00:55:49.555Z,90.91
2023-02-24T00:56:49.548Z,91.12
2023-02-24T00:57:49.529Z,91.22
2023-02-24T00:58:49.518Z,91.22
2023-02-24T00:59:49.504Z,91.33
2023-02-24T01:00:49.518Z,91.02
2023-02-24T01:01:49.542Z,91.12
2023-02-24T01:02:49.491Z,91.02
2023-02-24T01:03:49.507Z,91.22
2023-02-24T01:04:49.441Z,91.43
2023-02-24T01:05:49.424Z,91.43
2023-02-24T01:06:49.413Z,91.53
2023-02-24T01:07:49.429Z,91.53
2023-02-24T01:08:49.386Z,91.43
2023-02-24T01:09:49.372Z,91.47
2023-02-24T01:10:49.362Z,91.78
2023-02-24T01:11:49.449Z,91.99
2023-02-24T01:12:49.402Z,92.09
2023-02-24T01:13:49.336Z,91.99
2023-02-24T01:14:49.310Z,91.78
2023-02-24T01:15:49.342Z,91.68
2023-02-24T01:16:49.304Z,91.78
2023-02-24T01:17:49.267Z,91.57
2023-02-24T01:18:49.256Z,91.68
2023-02-24T01:19:49.239Z,91.68
2023-02-24T01:20:49.230Z,91.78
2023-02-24T01:21:49.215Z,91.88
2023-02-24T01:22:49.223Z,92.09
2023-02-24T01:23:49.189Z,92.09
2023-02-24T01:24:49.184Z,91.99
2023-02-24T01:25:49.162Z,91.88
2023-02-24T01:26:49.149Z,91.88
2023-02-24T01:27:49.163Z,91.78
2023-02-24T01:28:49.126Z,91.88
2023-02-24T01:29:49.144Z,91.78
2023-02-24T01:30:49.100Z,91.99
2023-02-24T01:31:50.092Z,91.99
2023-02-24T01:32:49.432Z,91.82
2023-02-24T01:33:49.057Z,91.82
2023-02-24T01:34:49.054Z,91.78
2023-02-24T01:35:49.034Z,91.78
2023-02-24T01:36:49.025Z,91.68
2023-02-24T01:37:49.012Z,91.61
2023-02-24T01:38:48.996Z,91.68
2023-02-24T01:39:48.982Z,91.47
2023-02-24T01:40:48.973Z,91.47
2023-02-24T01:41:48.956Z,91.41
2023-02-24T01:42:48.944Z,91.41
2023-02-24T01:43:48.931Z,91.27
2023-02-24T01:44:48.947Z,90.85
2023-02-24T01:45:48.908Z,91.06
2023-02-24T01:46:48.921Z,91.16
2023-02-24T01:47:48.878Z,90.96
2023-02-24T01:48:48.895Z,90.96
2023-02-24T01:49:48.853Z,90.59
2023-02-24T01:50:48.845Z,90.07
2023-02-24T01:51:48.826Z,90.17
2023-02-24T01:52:48.818Z,89.66
2023-02-24T01:53:48.801Z,89.77
2023-02-24T01:54:48.789Z,89.45
2023-02-24T01:55:48.775Z,88.94
2023-02-24T01:56:48.761Z,89.05
2023-02-24T01:57:48.754Z,88.84
2023-02-24T01:58:48.738Z,88.69
2023-02-24T01:59:48.737Z,88.28
2023-02-24T02:00:48.728Z,88.07
2023-02-24T02:01:48.858Z,88.22
2023-02-24T02:02:48.756Z,88.07
2023-02-24T02:03:48.673Z,87.81
2023-02-24T02:04:48.683Z,87.81
2023-02-24T02:05:48.834Z,87.67
2023-02-24T02:06:48.639Z,87.67
2023-02-24T02:07:48.618Z,87.46
2023-02-24T02:08:48.607Z,87.67
2023-02-24T02:09:48.601Z,87.25
2023-02-24T02:10:48.582Z,87.25
2023-02-24T02:11:48.565Z,87.05
2023-02-24T02:12:48.553Z,86.84
2023-02-24T02:13:48.603Z,86.84
2023-02-24T02:14:48.527Z,86.84
2023-02-24T02:15:48.549Z,86.74
2023-02-24T02:16:48.501Z,86.84
2023-02-24T02:17:48.492Z,86.95
2023-02-24T02:18:48.476Z,87.25
2023-02-24T02:19:48.466Z,87.05
2023-02-24T02:20:48.473Z,87.15
2023-02-24T02:21:48.461Z,87.46
2023-02-24T02:22:48.421Z,87.05
2023-02-24T02:23:48.407Z,87.15
2023-02-24T02:24:48.467Z,86.63
2023-02-24T02:25:48.381Z,86.63
2023-02-24T02:26:48.370Z,86.84
2023-02-24T02:27:48.355Z,86.53
2023-02-24T02:28:48.352Z,87.19
2023-02-24T02:29:48.336Z,87.29
2023-02-24T02:30:48.356Z,87.19
2023-02-24T02:31:48.384Z,87.19
2023-02-24T02:32:48.378Z,87.50
2023-02-24T02:33:48.277Z,87.19
2023-02-24T02:34:48.265Z,87.70
2023-02-24T02:35:48.251Z,87.29
2023-02-24T02:36:48.271Z,87.50
2023-02-24T02:37:48.229Z,87.60
2023-02-24T02:38:48.212Z,87.60
2023-02-24T02:39:48.219Z,87.60
2023-02-24T02:40:48.192Z,87.54
2023-02-24T02:41:48.172Z,87.70
2023-02-24T02:42:48.174Z,87.64
2023-02-24T02:43:48.146Z,87.75
2023-02-24T02:44:48.132Z,87.75
2023-02-24T02:45:48.205Z,87.85
2023-02-24T02:46:48.105Z,87.75
2023-02-24T02:47:48.091Z,87.85
2023-02-24T02:48:48.105Z,87.85
2023-02-24T02:49:48.064Z,87.95
2023-02-24T02:50:48.051Z,88.06
2023-02-24T02:51:48.038Z,87.95
2023-02-24T02:52:48.052Z,88.16
2023-02-24T02:53:48.010Z,88.36
2023-02-24T02:54:47.997Z,88.36
2023-02-24T02:55:47.987Z,88.36
2023-02-24T02:56:47.970Z,88.16
2023-02-24T02:57:47.969Z,88.57
2023-02-24T02:58:47.953Z,88.67
2023-02-24T02:59:47.935Z,88.57
2023-02-24T03:00:47.947Z,88.47
2023-02-24T03:01:47.909Z,88.47
2023-02-24T03:02:47.896Z,88.36
2023-02-24T03:03:47.895Z,88.26
2023-02-24T03:04:47.953Z,88.16
2023-02-24T03:05:47.853Z,88.16
2023-02-24T03:06:47.851Z,88.22
2023-02-24T03:07:47.826Z,88.16
2023-02-24T03:08:47.836Z,88.26
2023-02-24T03:09:47.803Z,88.26
2023-02-24T03:10:47.788Z,88.26
2023-02-24T03:11:47.772Z,88.33
2023-02-24T03:12:47.762Z,87.91
2023-02-24T03:13:47.748Z,87.95
2023-02-24T03:14:47.732Z,88.47
2023-02-24T03:15:47.720Z,88.36
2023-02-24T03:16:47.776Z,88.57
2023-02-24T03:17:47.707Z,88.57
2023-02-24T03:18:47.679Z,88.57
2023-02-24T03:19:47.667Z,88.47
2023-02-24T03:20:47.653Z,88.78
2023-02-24T03:21:47.643Z,88.57
2023-02-24T03:22:47.628Z,88.47
2023-02-24T03:23:47.617Z,88.57
2023-02-24T03:24:47.626Z,88.57
2023-02-24T03:25:47.590Z,88.47
2023-02-24T03:26:47.578Z,88.36
2023-02-24T03:27:47.564Z,88.16
2023-02-24T03:28:47.554Z,88.16
2023-02-24T03:29:47.552Z,88.26
2023-02-24T03:30:47.591Z,88.36
2023-02-24T03:31:47.679Z,88.26
2023-02-24T03:32:47.628Z,88.36
2023-02-24T03:33:47.488Z,88.57
2023-02-24T03:34:47.492Z,88.57
2023-02-24T03:35:47.473Z,88.57
2023-02-24T03:36:47.446Z,88.67
2023-02-24T03:37:47.454Z,88.67
2023-02-24T03:38:47.422Z,88.92
2023-02-24T03:39:47.407Z,89.12
2023-02-24T03:40:47.421Z,89.33
2023-02-24T03:41:47.384Z,89.19
2023-02-24T03:42:47.368Z,89.12
2023-02-24T03:43:47.360Z,89.29
2023-02-24T03:44:47.340Z,89.08
2023-02-24T03:45:47.350Z,88.78
2023-02-24T03:46:47.315Z,88.67
2023-02-24T03:47:47.316Z,88.78
2023-02-24T03:48:47.292Z,88.47
2023-02-24T03:49:47.276Z,88.67
2023-02-24T03:50:47.261Z,88.67
2023-02-24T03:51:47.250Z,88.67
2023-02-24T03:52:47.312Z,88.67
2023-02-24T03:53:47.224Z,89.19
2023-02-24T03:54:47.211Z,89.29
2023-02-24T03:55:47.200Z,89.08
2023-02-24T03:56:47.222Z,89.19
2023-02-24T03:57:47.172Z,89.08
2023-02-24T03:58:47.164Z,89.19
2023-02-24T03:59:47.168Z,89.33
2023-02-24T04:00:47.150Z,89.44
2023-02-24T04:01:47.121Z,89.50
2023-02-24T04:02:47.217Z,89.39
2023-02-24T04:03:47.092Z,89.64
2023-02-24T04:04:47.128Z,89.84
2023-02-24T04:05:47.066Z,89.84
2023-02-24T04:06:47.055Z,89.95
2023-02-24T04:07:47.041Z,89.60
2023-02-24T04:08:47.024Z,89.74
2023-02-24T04:09:47.012Z,89.74
2023-02-24T04:10:46.998Z,89.84
2023-02-24T04:11:46.997Z,90.05
2023-02-24T04:12:47.191Z,90.05
2023-02-24T04:13:46.974Z,89.91
2023-02-24T04:14:46.947Z,89.81
2023-02-24T04:15:47.033Z,89.81
2023-02-24T04:16:46.923Z,89.70
2023-02-24T04:17:46.908Z,89.39
2023-02-24T04:18:46.895Z,90.16
2023-02-24T04:19:46.886Z,90.26
2023-02-24T04:20:46.870Z,90.16
2023-02-24T04:21:46.855Z,90.11
2023-02-24T04:22:46.840Z,90.01
2023-02-24T04:23:46.829Z,89.81
2023-02-24T04:24:46.817Z,89.70
2023-02-24T04:25:46.811Z,89.70
2023-02-24T04:26:46.787Z,89.70
2023-02-24T04:27:46.776Z,89.60
2023-02-24T04:28:46.846Z,89.60
2023-02-24T04:29:46.757Z,89.60
2023-02-24T04:30:46.868Z,89.39
2023-02-24T04:31:46.995Z,89.19
2023-02-24T04:32:46.735Z,89.08
2023-02-24T04:33:46.697Z,88.98
2023-02-24T04:34:46.683Z,89.08
2023-02-24T04:35:46.676Z,89.19
2023-02-24T04:36:46.659Z,89.50
2023-02-24T04:37:46.654Z,89.70
2023-02-24T04:38:46.637Z,89.50
2023-02-24T04:39:46.626Z,89.60
2023-02-24T04:40:46.604Z,89.29
2023-02-24T04:41:46.595Z,89.60
2023-02-24T04:42:46.729Z,89.39
2023-02-24T04:43:46.567Z,89.39
2023-02-24T04:44:46.578Z,89.08
2023-02-24T04:45:46.541Z,89.29
2023-02-24T04:46:46.618Z,89.60
2023-02-24T04:47:46.514Z,89.50
2023-02-24T04:48:46.517Z,89.50
2023-02-24T04:49:46.490Z,89.70
2023-02-24T04:50:46.481Z,89.60
2023-02-24T04:51:46.461Z,89.50
2023-02-24T04:52:46.448Z,89.60
2023-02-24T04:53:46.436Z,89.70
2023-02-24T04:54:46.425Z,89.60
2023-02-24T04:55:46.409Z,89.81
2023-02-24T04:56:46.396Z,89.81
2023-02-24T04:57:46.383Z,89.70
2023-02-24T04:58:46.493Z,89.81
2023-02-24T04:59:46.357Z,89.81
2023-02-24T05:00:46.372Z,89.81
2023-02-24T05:01:46.332Z,90.01
2023-02-24T05:02:46.318Z,89.81
2023-02-24T05:03:46.517Z,89.70
2023-02-24T05:04:46.372Z,90.05
2023-02-24T05:05:46.280Z,90.16
2023-02-24T05:06:46.265Z,90.11
2023-02-24T05:07:46.257Z,90.01
2023-02-24T05:08:46.241Z,89.81
2023-02-24T05:09:46.228Z,89.50
2023-02-24T05:10:46.214Z,89.70
2023-02-24T05:11:46.216Z,89.50
2023-02-24T05:12:46.188Z,89.39
2023-02-24T05:13:46.316Z,89.60
2023-02-24T05:14:46.168Z,89.70
2023-02-24T05:15:46.203Z,89.60
2023-02-24T05:16:46.160Z,89.50
2023-02-24T05:17:46.134Z,89.39
2023-02-24T05:18:46.115Z,89.70
2023-02-24T05:19:46.114Z,89.91
2023-02-24T05:20:46.158Z,89.81
2023-02-24T05:21:46.075Z,89.70
2023-02-24T05:22:46.061Z,90.01
2023-02-24T05:23:46.069Z,89.91
2023-02-24T05:24:46.033Z,90.01
2023-02-24T05:25:46.020Z,90.01
2023-02-24T05:26:46.014Z,89.91
2023-02-24T05:27:45.993Z,90.32
2023-02-24T05:28:45.979Z,90.22
2023-02-24T05:29:45.990Z,90.32
2023-02-24T05:30:45.990Z,90.22
2023-02-24T05:31:46.118Z,90.22
2023-02-24T05:32:46.036Z,90.22
2023-02-24T05:33:45.916Z,90.32
2023-02-24T05:34:45.902Z,90.42
2023-02-24T05:35:45.889Z,90.42
2023-02-24T05:36:45.940Z,90.63
2023-02-24T05:37:45.898Z,90.53
2023-02-24T05:38:45.847Z,90.63
2023-02-24T05:39:45.845Z,90.22
2023-02-24T05:40:45.821Z,90.11
2023-02-24T05:41:45.811Z,90.01
2023-02-24T05:42:45.795Z,90.32
2023-02-24T05:43:45.781Z,90.07
2023-02-24T05:44:45.766Z,90.01
2023-02-24T05:45:45.755Z,89.87
2023-02-24T05:46:45.830Z,89.66
2023-02-24T05:47:45.727Z,89.70
2023-02-24T05:48:45.739Z,89.81
2023-02-24T05:49:45.704Z,89.87
2023-02-24T05:50:45.688Z,89.97
2023-02-24T05:51:45.676Z,89.77
2023-02-24T05:52:45.665Z,89.77
2023-02-24T05:53:45.653Z,89.66
2023-02-24T05:54:45.634Z,89.56
2023-02-24T05:55:45.624Z,89.56
2023-02-24T05:56:45.612Z,89.77
2023-02-24T05:57:45.596Z,89.77
2023-02-24T05:58:45.585Z,89.77
2023-02-24T05:59:45.572Z,89.77
2023-02-24T06:00:45.556Z,89.66
2023-02-24T06:01:45.588Z,89.56
2023-02-24T06:02:45.581Z,89.66
2023-02-24T06:03:45.520Z,89.60
2023-02-24T06:04:45.544Z,90.01
2023-02-24T06:05:45.496Z,89.70
2023-02-24T06:06:45.479Z,89.81
2023-02-24T06:07:45.467Z,89.60
2023-02-24T06:08:45.453Z,89.70
2023-02-24T06:09:45.440Z,89.50
2023-02-24T06:10:45.425Z,89.29
2023-02-24T06:11:45.512Z,89.29
2023-02-24T06:12:45.396Z,89.39
2023-02-24T06:13:45.388Z,89.39
2023-02-24T06:14:45.376Z,89.50
2023-02-24T06:15:45.362Z,89.39
2023-02-24T06:16:45.425Z,89.39
2023-02-24T06:17:45.336Z,88.88
2023-02-24T06:18:45.344Z,88.88
2023-02-24T06:19:45.341Z,88.78
2023-02-24T06:20:45.328Z,88.81
2023-02-24T06:21:45.285Z,88.88
2023-02-24T06:22:45.268Z,88.36
2023-02-24T06:23:45.274Z,88.06
2023-02-24T06:24:45.254Z,88.06
2023-02-24T06:25:45.233Z,88.16
2023-02-24T06:26:45.215Z,87.95
2023-02-24T06:27:45.209Z,88.26
2023-02-24T06:28:45.193Z,88.26
2023-02-24T06:29:45.181Z,88.06
2023-02-24T06:30:45.192Z,88.26
2023-02-24T06:31:45.287Z,88.12
2023-02-24T06:32:45.280Z,88.12
2023-02-24T06:33:45.129Z,88.01
2023-02-24T06:34:45.120Z,87.81
2023-02-24T06:35:45.104Z,87.60
2023-02-24T06:36:45.115Z,86.88
2023-02-24T06:37:45.077Z,87.19
2023-02-24T06:38:45.063Z,87.09
2023-02-24T06:39:45.053Z,87.40
2023-02-24T06:40:45.037Z,87.40
2023-02-24T06:41:45.025Z,86.78
2023-02-24T06:42:45.009Z,87.09
2023-02-24T06:43:45.002Z,86.78
2023-02-24T06:44:44.984Z,86.78
2023-02-24T06:45:45.023Z,86.37
2023-02-24T06:46:44.959Z,86.05
2023-02-24T06:47:44.951Z,86.26
2023-02-24T06:48:44.938Z,86.05
2023-02-24T06:49:44.925Z,85.85
2023-02-24T06:50:44.906Z,86.20
2023-02-24T06:51:44.902Z,86.10
2023-02-24T06:52:44.903Z,86.30
2023-02-24T06:53:44.879Z,85.99
2023-02-24T06:54:44.854Z,86.20
2023-02-24T06:55:44.844Z,86.51
2023-02-24T06:56:44.828Z,85.79
2023-02-24T06:57:44.817Z,85.48
2023-02-24T06:59:50.801Z,85.79
2023-02-24T07:00:44.779Z,85.48
2023-02-24T07:01:44.764Z,85.38
2023-02-24T07:02:44.753Z,85.21
2023-02-24T07:03:44.738Z,85.62
2023-02-24T07:04:44.738Z,85.38
2023-02-24T07:05:44.715Z,85.52
2023-02-24T07:06:44.698Z,85.58
2023-02-24T07:07:44.690Z,85.52
2023-02-24T07:08:44.704Z,85.48
2023-02-24T07:09:44.660Z,85.48
2023-02-24T07:10:44.642Z,85.07
2023-02-24T07:11:46.729Z,84.86
2023-02-24T07:12:44.621Z,84.86
2023-02-24T07:13:44.604Z,84.86
2023-02-24T07:14:44.598Z,84.96
2023-02-24T07:15:44.578Z,84.90
2023-02-24T07:16:44.598Z,85.00
2023-02-24T07:17:45.191Z,84.96
2023-02-24T07:18:44.539Z,84.66
2023-02-24T07:19:44.525Z,84.55
2023-02-24T07:20:44.515Z,84.76
2023-02-24T07:21:44.502Z,84.45
2023-02-24T07:22:44.488Z,84.66
2023-02-24T07:23:44.474Z,84.39
2023-02-24T07:24:44.484Z,84.39
2023-02-24T07:25:44.449Z,84.59
2023-02-24T07:26:44.445Z,84.49
2023-02-24T07:27:44.420Z,84.66
2023-02-24T07:28:44.409Z,84.45
2023-02-24T07:29:44.397Z,84.14
2023-02-24T07:30:44.587Z,83.73
2023-02-24T07:31:44.587Z,84.18
2023-02-24T07:32:44.419Z,84.49
2023-02-24T07:33:44.341Z,84.04
2023-02-24T07:34:44.343Z,84.08
2023-02-24T07:35:44.314Z,84.28
2023-02-24T07:36:44.304Z,83.97
2023-02-24T07:37:44.288Z,84.24
2023-02-24T07:38:44.275Z,84.24
2023-02-24T07:39:44.260Z,84.28
2023-02-24T07:40:44.278Z,84.39
2023-02-24T07:41:44.237Z,84.24
2023-02-24T07:42:44.224Z,83.83
2023-02-24T07:43:44.231Z,83.83
2023-02-24T07:44:44.196Z,83.83
2023-02-24T07:45:44.179Z,83.73
2023-02-24T07:46:44.191Z,83.48
2023-02-24T07:47:44.156Z,83.73
2023-02-24T07:48:44.145Z,83.52
2023-02-24T07:49:44.135Z,84.04
2023-02-24T07:50:44.119Z,83.94
2023-02-24T07:51:44.104Z,84.10
2023-02-24T07:52:44.092Z,83.89
2023-02-24T07:53:44.082Z,83.42
2023-02-24T07:54:44.079Z,83.87
2023-02-24T07:55:44.054Z,84.18
2023-02-24T07:56:44.068Z,84.08
2023-02-24T07:57:44.030Z,84.59
2023-02-24T07:58:44.017Z,84.59
2023-02-24T07:59:44.003Z,84.69
2023-02-24T08:00:43.991Z,84.80
2023-02-24T08:01:43.976Z,84.69
2023-02-24T08:02:44.004Z,84.94
2023-02-24T08:03:43.952Z,85.11
2023-02-24T08:04:43.945Z,85.15
2023-02-24T08:05:44.062Z,85.21
2023-02-24T08:06:46.166Z,85.35
2023-02-24T08:07:43.909Z,85.25
2023-02-24T08:08:43.890Z,85.41
2023-02-24T08:09:43.875Z,84.90
2023-02-24T08:10:43.866Z,84.59
2023-02-24T08:11:43.852Z,84.80
2023-02-24T08:12:43.877Z,84.69
2023-02-24T08:13:43.825Z,84.39
2023-02-24T08:14:43.812Z,84.80
2023-02-24T08:15:43.834Z,84.69
2023-02-24T08:16:43.818Z,83.87
2023-02-24T08:17:43.773Z,84.49
2023-02-24T08:18:43.762Z,84.83
2023-02-24T08:19:43.756Z,84.69
2023-02-24T08:20:43.736Z,84.49
2023-02-24T08:21:43.721Z,84.49
2023-02-24T08:22:43.713Z,84.08
2023-02-24T08:23:43.695Z,83.87
2023-02-24T08:24:43.690Z,83.77
2023-02-24T08:25:43.671Z,84.28
2023-02-24T08:26:43.655Z,84.18
2023-02-24T08:27:43.645Z,84.39
2023-02-24T08:28:43.668Z,83.97
2023-02-24T08:29:43.617Z,83.97
2023-02-24T08:30:43.662Z,83.77
2023-02-24T08:31:43.788Z,83.87
2023-02-24T08:32:43.961Z,84.18
2023-02-24T08:33:43.564Z,83.66
2023-02-24T08:34:43.551Z,83.66
2023-02-24T08:35:43.537Z,83.15
2023-02-24T08:36:43.528Z,83.56
2023-02-24T08:37:43.512Z,82.94
2023-02-24T08:38:43.499Z,82.91
2023-02-24T08:39:43.496Z,82.70
2023-02-24T08:40:43.478Z,82.80
2023-02-24T08:41:43.461Z,82.73
2023-02-24T08:42:43.450Z,83.46
2023-02-24T08:43:43.452Z,83.77
2023-02-24T08:44:43.444Z,83.77
2023-02-24T08:45:43.409Z,83.15
2023-02-24T08:46:43.441Z,83.46
2023-02-24T08:47:43.393Z,83.66
2023-02-24T08:48:43.402Z,83.56
2023-02-24T08:49:44.442Z,83.22
2023-02-24T08:50:43.351Z,82.39
2023-02-24T08:51:43.336Z,82.25
2023-02-24T08:52:43.342Z,81.63
2023-02-24T08:53:43.315Z,81.73
2023-02-24T08:54:43.298Z,81.46
2023-02-24T08:55:43.285Z,81.87
2023-02-24T08:56:43.428Z,81.46
2023-02-24T08:57:43.259Z,81.15
2023-02-24T08:58:43.248Z,80.84
2023-02-24T08:59:43.240Z,81.05
2023-02-24T09:00:43.285Z,80.84
2023-02-24T09:01:45.249Z,80.50
2023-02-24T09:02:43.197Z,79.33
2023-02-24T09:03:43.182Z,78.36
2023-02-24T09:04:43.206Z,78.33
2023-02-24T09:05:43.158Z,77.99
2023-02-24T09:06:43.149Z,77.23
2023-02-24T09:07:43.130Z,76.17
2023-02-24T09:08:43.118Z,75.31
2023-02-24T09:09:43.110Z,73.77
2023-02-24T09:10:43.094Z,73.80
2023-02-24T09:11:43.079Z,73.22
2023-02-24T09:12:43.069Z,70.02
2023-02-24T09:13:43.115Z,68.28
2023-02-24T09:14:43.041Z,67.50
2023-02-24T09:15:43.029Z,66.44
2023-02-24T09:16:43.160Z,66.75
2023-02-24T09:17:43.014Z,66.99
2023-02-24T09:18:42.991Z,67.81
2023-02-24T09:19:42.979Z,67.35
2023-02-24T09:20:42.962Z,69.40
2023-02-24T09:21:42.947Z,68.82
2023-02-24T09:22:42.932Z,69.40
2023-02-24T09:23:42.917Z,68.04
2023-02-24T09:24:42.908Z,68.07
2023-02-24T09:25:42.894Z,68.45
2023-02-24T09:26:42.883Z,67.81
2023-02-24T09:27:42.863Z,65.87
2023-02-24T09:28:42.898Z,63.97
2023-02-24T09:29:42.841Z,63.36
2023-02-24T09:30:42.882Z,64.75
2023-02-24T09:31:43.109Z,66.17
2023-02-24T09:32:42.935Z,67.60
2023-02-24T09:33:42.791Z,66.24
2023-02-24T09:34:42.774Z,66.58
2023-02-24T09:35:42.759Z,67.56
2023-02-24T09:36:42.787Z,68.38
2023-02-24T09:37:42.734Z,68.07
2023-02-24T09:38:42.724Z,67.43
2023-02-24T09:39:42.705Z,67.02
2023-02-24T09:40:42.694Z,65.96
2023-02-24T09:41:42.680Z,67.46
2023-02-24T09:42:42.670Z,68.41
2023-02-24T09:43:42.655Z,68.48
2023-02-24T09:44:42.645Z,67.84
2023-02-24T09:45:42.826Z,63.78
2023-02-24T09:46:42.730Z,59.21
2023-02-24T09:47:42.603Z,56.23
2023-02-24T09:48:42.611Z,57.33
2023-02-24T09:49:42.574Z,58.78
2023-02-24T09:51:01.500Z,58.27
2023-02-24T09:51:42.553Z,57.78
2023-02-24T09:52:42.550Z,56.54
2023-02-24T09:53:42.522Z,56.13
2023-02-24T09:54:42.511Z,56.59
2023-02-24T09:55:42.520Z,57.76
2023-02-24T09:56:42.751Z,58.68
2023-02-24T09:57:42.542Z,57.97
2023-02-24T09:58:44.274Z,58.70
2023-02-24T09:59:42.447Z,59.81
2023-02-24T10:00:42.437Z,61.39
2023-02-24T10:01:42.418Z,62.98
2023-02-24T10:02:42.506Z,63.59
2023-02-24T10:03:42.669Z,62.91
2023-02-24T10:04:42.493Z,63.86
2023-02-24T10:05:42.366Z,63.76
2023-02-24T10:06:42.356Z,64.23
2023-02-24T10:07:42.339Z,64.84
2023-02-24T10:08:42.329Z,65.38
2023-02-24T10:09:42.312Z,67.29
2023-02-24T10:10:42.301Z,67.87
2023-02-24T10:11:42.286Z,67.84
2023-02-24T10:12:42.275Z,66.27
2023-02-24T10:13:42.261Z,65.46
2023-02-24T10:14:44.078Z,65.73
2023-02-24T10:15:42.237Z,65.52
2023-02-24T10:16:42.383Z,65.19
2023-02-24T10:17:42.205Z,63.83
2023-02-24T10:18:42.203Z,64.67
2023-02-24T10:19:42.189Z,64.92
2023-02-24T10:20:42.239Z,63.29
2023-02-24T10:21:42.249Z,62.98
2023-02-24T10:22:42.141Z,63.39
2023-02-24T10:23:43.355Z,63.26
2023-02-24T10:24:42.116Z,62.88
2023-02-24T10:25:42.112Z,63.01
2023-02-24T10:26:51.138Z,63.76
2023-02-24T10:27:44.088Z,64.50
2023-02-24T10:28:42.067Z,64.94
2023-02-24T10:29:42.052Z,65.28
2023-02-24T10:30:42.136Z,65.99
2023-02-24T10:31:42.417Z,66.43
2023-02-24T10:32:42.128Z,66.97
2023-02-24T10:33:42.008Z,66.94
2023-02-24T10:34:41.995Z,67.29
2023-02-24T10:35:41.971Z,68.03
2023-02-24T10:36:41.983Z,67.29
2023-02-24T10:37:41.944Z,66.97
2023-02-24T10:38:41.934Z,66.64
2023-02-24T10:39:41.919Z,66.36
2023-02-24T10:40:41.906Z,67.32
2023-02-24T10:41:41.938Z,67.55
2023-02-24T10:42:41.881Z,68.92
2023-02-24T10:43:41.902Z,69.02
2023-02-24T10:44:43.331Z,68.40
2023-02-24T10:45:41.841Z,68.51
2023-02-24T10:46:42.888Z,67.79
2023-02-24T10:47:41.816Z,67.72
2023-02-24T10:48:42.678Z,67.44
2023-02-24T10:49:41.788Z,67.62
2023-02-24T10:50:55.012Z,67.31
2023-02-24T10:51:41.769Z,67.72
2023-02-24T10:52:41.773Z,66.15
2023-02-24T10:53:41.733Z,65.74
2023-02-24T10:54:41.724Z,65.61
2023-02-24T10:55:41.709Z,65.06
2023-02-24T10:56:41.764Z,65.16
2023-02-24T10:57:53.544Z,66.02
2023-02-24T10:58:41.673Z,65.78
2023-02-24T10:59:41.788Z,65.50
2023-02-24T11:00:41.646Z,65.50
2023-02-24T11:01:41.674Z,66.25
2023-02-24T11:02:41.718Z,66.56
2023-02-24T11:03:41.623Z,66.87
2023-02-24T11:04:41.600Z,66.97
2023-02-24T11:05:41.581Z,67.18
2023-02-24T11:06:41.565Z,67.41
2023-02-24T11:07:41.549Z,67.92
2023-02-24T11:08:41.574Z,68.67
2023-02-24T11:09:41.525Z,68.81
2023-02-24T11:10:41.512Z,69.84
2023-02-24T11:11:41.496Z,69.84
2023-02-24T11:12:41.499Z,69.22
2023-02-24T11:13:41.473Z,69.50
2023-02-24T11:14:41.461Z,69.18
2023-02-24T11:15:43.482Z,68.95
2023-02-24T11:16:41.430Z,68.75
2023-02-24T11:17:41.472Z,69.90
2023-02-24T11:18:41.410Z,69.26
2023-02-24T11:19:41.390Z,68.85
2023-02-24T11:20:48.855Z,69.47
2023-02-24T11:21:43.783Z,68.64
2023-02-24T11:22:41.356Z,68.47
2023-02-24T11:23:41.338Z,69.18
2023-02-24T11:24:41.375Z,69.09
2023-02-24T11:25:41.316Z,69.63
2023-02-24T11:26:41.318Z,70.38
2023-02-24T11:27:41.287Z,70.38
2023-02-24T11:28:41.272Z,70.69
2023-02-24T11:29:41.261Z,71.03
2023-02-24T11:30:41.469Z,71.61
2023-02-24T11:31:41.469Z,70.86
2023-02-24T11:32:41.240Z,70.31
2023-02-24T11:33:41.205Z,69.50
2023-02-24T11:34:41.204Z,69.70
2023-02-24T11:35:41.179Z,69.90
2023-02-24T11:36:41.164Z,69.50
2023-02-24T11:37:43.165Z,70.35
2023-02-24T11:38:41.135Z,70.25
2023-02-24T11:39:41.132Z,69.36
2023-02-24T11:40:41.190Z,69.05
2023-02-24T11:41:41.101Z,68.67
2023-02-24T11:42:41.081Z,68.88
2023-02-24T11:43:41.071Z,69.09
2023-02-24T11:44:41.057Z,68.64
2023-02-24T11:45:41.041Z,68.13
2023-02-24T11:46:41.064Z,68.54
2023-02-24T11:47:41.021Z,68.54
2023-02-24T11:48:41.004Z,68.95
2023-02-24T11:49:40.992Z,68.64
2023-02-24T11:50:40.977Z,68.13
2023-02-24T11:51:40.966Z,68.85
2023-02-24T11:52:40.964Z,68.40
2023-02-24T11:53:40.943Z,68.10
2023-02-24T11:54:40.926Z,68.51
2023-02-24T11:55:40.913Z,68.51
2023-02-24T11:56:40.922Z,69.47
2023-02-24T11:57:40.889Z,69.12
2023-02-24T11:58:40.875Z,68.61
2023-02-24T11:59:40.862Z,68.81
2023-02-24T12:00:40.847Z,68.61
2023-02-24T12:01:40.838Z,68.40
2023-02-24T12:02:40.858Z,68.37
2023-02-24T12:03:40.808Z,68.10
2023-02-24T12:04:40.793Z,67.76
2023-02-24T12:05:40.870Z,67.21
2023-02-24T12:06:40.786Z,66.67
2023-02-24T12:07:40.769Z,67.04
2023-02-24T12:08:40.749Z,67.24
2023-02-24T12:09:40.729Z,67.14
2023-02-24T12:10:40.715Z,67.55
2023-02-24T12:11:40.703Z,67.76
2023-02-24T12:12:40.714Z,68.43
2023-02-24T12:13:40.681Z,69.18
2023-02-24T12:14:40.700Z,69.60
2023-02-24T12:15:40.651Z,69.18
2023-02-24T12:16:40.675Z,69.15
2023-02-24T12:17:40.625Z,69.67
2023-02-24T12:18:40.612Z,69.26
2023-02-24T12:19:40.599Z,69.02
2023-02-24T12:20:40.590Z,68.61
2023-02-24T12:21:40.573Z,68.51
2023-02-24T12:22:40.558Z,68.71
2023-02-24T12:23:40.549Z,68.92
2023-02-24T12:24:40.532Z,69.56
2023-02-24T12:25:40.522Z,69.67
2023-02-24T12:26:40.508Z,69.80
2023-02-24T12:27:40.493Z,69.56
2023-02-24T12:28:40.506Z,69.67
2023-02-24T12:29:40.470Z,69.15
2023-02-24T12:30:40.508Z,69.56
2023-02-24T12:31:40.544Z,69.26
2023-02-24T12:32:40.620Z,68.88
2023-02-24T12:33:40.415Z,69.50
2023-02-24T12:34:40.400Z,70.01
2023-02-24T12:35:40.391Z,69.90
2023-02-24T12:36:40.371Z,70.93
2023-02-24T12:37:40.360Z,70.11
2023-02-24T12:38:40.344Z,70.62
2023-02-24T12:39:40.336Z,69.94
2023-02-24T12:40:40.326Z,69.02
2023-02-24T12:41:40.306Z,68.61
2023-02-24T12:42:40.292Z,68.68
2023-02-24T12:43:40.289Z,68.27
2023-02-24T12:44:40.292Z,69.02
2023-02-24T12:45:40.360Z,69.43
2023-02-24T12:46:40.239Z,68.92
2023-02-24T12:47:40.228Z,68.81
2023-02-24T12:48:40.210Z,68.89
2023-02-24T12:49:40.202Z,68.89
2023-02-24T12:50:40.192Z,68.81
2023-02-24T12:51:40.174Z,68.68
2023-02-24T12:52:40.158Z,69.23
2023-02-24T12:53:40.146Z,68.78